Time;durP1;ratioP1;P1;durP2;ratioP2;P2;SDS_P1;SDS_P2;PMS_P1;PMS_P2;Temp;Humidity;BMP_temperature;BMP_pressure;BME280_temperature;BME280_humidity;BME280_pressure;Samples;Min_cycle;Max_cycle;Signal;HPM_P1;HPM_P2
2021/05/13 00:00:25;;;;;;;2.80;0.85;;;14.00;99.90;;;;;;5072610;28;20070;-50
2021/05/13 00:02:51;;;;;;;3.55;1.52;;;14.00;99.90;;;;;;5072909;28;20471;-51
2021/05/13 00:05:16;;;;;;;3.05;1.50;;;14.00;99.90;;;;;;5071770;28;20032;-52
2021/05/13 00:07:42;;;;;;;3.28;1.23;;;13.90;99.90;;;;;;5072472;28;20040;-47
2021/05/13 00:10:14;;;;;;;5.55;1.67;;;13.90;99.90;;;;;;5072519;28;20459;-48
2021/05/13 00:12:50;;;;;;;2.05;1.30;;;13.90;99.90;;;;;;5072625;28;20028;-48
2021/05/13 00:15:22;;;;;;;2.80;1.42;;;13.80;99.90;;;;;;5072159;28;20035;-47
2021/05/13 00:17:49;;;;;;;3.45;1.65;;;13.70;99.90;;;;;;5072718;28;20038;-47
2021/05/13 00:20:20;;;;;;;2.88;1.33;;;13.70;99.90;;;;;;5071167;28;20039;-50
2021/05/13 00:22:45;;;;;;;3.00;1.70;;;13.60;99.90;;;;;;5072284;28;20046;-51
2021/05/13 00:25:12;;;;;;;4.28;1.35;;;13.50;99.90;;;;;;5072315;28;20032;-49
2021/05/13 00:27:37;;;;;;;7.93;2.10;;;13.40;99.90;;;;;;5072372;28;20028;-49
2021/05/13 00:30:05;;;;;;;4.60;1.83;;;13.40;99.90;;;;;;5072333;28;20020;-49
2021/05/13 00:32:31;;;;;;;2.75;1.40;;;13.40;99.90;;;;;;5071935;28;20024;-47
2021/05/13 00:34:57;;;;;;;4.50;1.70;;;13.30;99.90;;;;;;5071228;28;20035;-50
2021/05/13 00:37:22;;;;;;;3.35;1.80;;;13.20;99.90;;;;;;5069769;28;20074;-47
2021/05/13 00:39:49;;;;;;;2.78;1.50;;;13.20;99.90;;;;;;5071960;28;20056;-50
2021/05/13 00:42:14;;;;;;;3.55;1.92;;;13.10;99.90;;;;;;5071468;28;20483;-45
2021/05/13 00:44:43;;;;;;;1.90;1.08;;;13.10;99.90;;;;;;5072055;28;20039;-45
2021/05/13 00:47:09;;;;;;;3.75;1.63;;;13.10;99.90;;;;;;5071638;28;20558;-48
2021/05/13 00:49:34;;;;;;;3.90;1.65;;;13.10;99.90;;;;;;5070650;28;20119;-52
2021/05/13 00:52:00;;;;;;;3.22;1.90;;;13.00;99.90;;;;;;5081591;28;20112;-52
2021/05/13 00:54:25;;;;;;;3.05;1.90;;;13.00;99.90;;;;;;5071588;28;20127;-46
2021/05/13 00:56:51;;;;;;;4.63;1.60;;;13.00;99.90;;;;;;5071404;28;20495;-52
2021/05/13 00:59:18;;;;;;;3.25;1.75;;;13.00;99.90;;;;;;5071672;28;20040;-48
2021/05/13 01:04:20;;;;;;;2.63;1.90;;;12.90;99.90;;;;;;5070525;28;20051;-48
2021/05/13 01:06:49;;;;;;;3.58;1.80;;;12.90;99.90;;;;;;5068271;28;20059;-46
2021/05/13 01:09:21;;;;;;;4.82;2.10;;;12.90;99.90;;;;;;5070921;28;20379;-50
2021/05/13 01:11:52;;;;;;;4.63;2.28;;;12.90;99.90;;;;;;5058910;28;20739;-48
2021/05/13 01:14:22;;;;;;;5.57;2.72;;;12.80;99.90;;;;;;5071151;28;20021;-46
2021/05/13 01:16:59;;;;;;;7.47;2.30;;;12.80;99.90;;;;;;5071325;28;20048;-53
2021/05/13 01:19:26;;;;;;;7.70;2.80;;;12.70;99.90;;;;;;5070184;28;20259;-47
2021/05/13 01:21:52;;;;;;;5.00;2.50;;;12.70;99.90;;;;;;5071036;28;20025;-50
2021/05/13 01:24:18;;;;;;;7.70;2.42;;;12.60;99.90;;;;;;5070984;28;20025;-46
2021/05/13 01:26:45;;;;;;;3.20;2.33;;;12.60;99.90;;;;;;5070616;28;20020;-45
2021/05/13 01:29:11;;;;;;;4.93;2.33;;;12.50;99.90;;;;;;5070963;28;20028;-49
2021/05/13 01:31:37;;;;;;;4.70;2.50;;;12.50;99.90;;;;;;5071124;28;20023;-54
2021/05/13 01:34:05;;;;;;;4.30;2.45;;;12.50;99.90;;;;;;5070153;28;20024;-49
2021/05/13 01:36:30;;;;;;;6.35;3.28;;;12.50;99.90;;;;;;5071056;28;20031;-45
2021/05/13 01:38:57;;;;;;;6.47;2.85;;;12.50;99.90;;;;;;5070884;28;20033;-50
2021/05/13 01:41:23;;;;;;;5.47;3.25;;;12.50;99.90;;;;;;5070787;28;20410;-46
2021/05/13 01:43:48;;;;;;;6.00;2.65;;;12.40;99.90;;;;;;5071624;28;20028;-44
2021/05/13 01:46:14;;;;;;;4.72;2.63;;;12.40;99.90;;;;;;5071680;28;20139;-46
2021/05/13 01:48:42;;;;;;;5.22;3.13;;;12.40;99.90;;;;;;5070575;28;20574;-50
2021/05/13 01:51:08;;;;;;;5.45;2.90;;;12.40;99.90;;;;;;5077685;28;20470;-45
2021/05/13 01:53:33;;;;;;;5.00;2.90;;;12.40;99.90;;;;;;5092554;28;20075;-49
2021/05/13 01:55:59;;;;;;;6.05;3.45;;;12.40;99.90;;;;;;5092811;28;20521;-46
2021/05/13 01:58:24;;;;;;;7.55;3.15;;;12.50;99.90;;;;;;5092645;28;20028;-51
2021/05/13 02:00:50;;;;;;;3.80;2.28;;;12.50;99.90;;;;;;5092747;28;20286;-47
2021/05/13 02:03:17;;;;;;;6.68;2.90;;;12.50;99.90;;;;;;5092764;28;20474;-45
2021/05/13 02:05:42;;;;;;;4.90;2.95;;;12.50;99.90;;;;;;5091893;28;20038;-52
2021/05/13 02:08:08;;;;;;;4.65;2.42;;;12.50;99.90;;;;;;5074728;28;20103;-48
2021/05/13 02:10:34;;;;;;;4.40;2.58;;;12.50;99.90;;;;;;5072264;28;20096;-45
2021/05/13 02:12:59;;;;;;;4.82;2.30;;;12.50;99.90;;;;;;5072364;28;20547;-45
2021/05/13 02:15:26;;;;;;;4.55;2.03;;;12.50;99.90;;;;;;5072355;28;20463;-48
2021/05/13 02:17:51;;;;;;;3.55;2.38;;;12.60;99.90;;;;;;5072450;28;20078;-50
2021/05/13 02:20:19;;;;;;;4.00;2.63;;;12.50;99.90;;;;;;5071462;28;20028;-48
2021/05/13 02:22:45;;;;;;;3.40;2.28;;;12.60;99.90;;;;;;5072125;28;20037;-48
2021/05/13 02:25:11;;;;;;;6.13;2.45;;;12.60;99.90;;;;;;5072240;28;20025;-46
2021/05/13 02:27:37;;;;;;;3.80;2.15;;;12.60;99.90;;;;;;5071919;28;20024;-47
2021/05/13 02:30:05;;;;;;;3.22;2.25;;;12.60;99.90;;;;;;5072463;28;20025;-45
2021/05/13 02:32:30;;;;;;;3.70;2.58;;;12.60;99.90;;;;;;5072077;28;20028;-47
2021/05/13 02:34:56;;;;;;;3.30;2.42;;;12.60;99.90;;;;;;5071393;28;20111;-47
2021/05/13 02:37:21;;;;;;;4.47;2.45;;;12.60;99.90;;;;;;5073695;28;20391;-46
2021/05/13 02:39:48;;;;;;;3.83;2.55;;;12.60;99.90;;;;;;5075964;28;20031;-46
2021/05/13 02:42:14;;;;;;;4.43;2.42;;;12.60;99.90;;;;;;5075970;28;20027;-48
2021/05/13 02:44:39;;;;;;;1.75;1.63;;;12.60;99.90;;;;;;5075987;28;20365;-47
2021/05/13 02:47:05;;;;;;;4.78;2.40;;;12.60;99.90;;;;;;5075803;28;20040;-48
2021/05/13 02:49:30;;;;;;;3.13;2.08;;;12.60;99.90;;;;;;5075019;28;20123;-47
2021/05/13 02:51:56;;;;;;;2.97;2.00;;;12.60;99.90;;;;;;5086772;28;20086;-46
2021/05/13 02:54:22;;;;;;;4.40;2.45;;;12.60;99.90;;;;;;5095872;28;20065;-48
2021/05/13 02:56:47;;;;;;;4.43;2.20;;;12.60;99.90;;;;;;5095846;28;20063;-49
2021/05/13 02:59:15;;;;;;;3.88;2.03;;;12.70;99.90;;;;;;5096048;28;20061;-47
2021/05/13 03:01:40;;;;;;;5.18;2.70;;;12.70;99.90;;;;;;5095848;28;20031;-49
2021/05/13 03:04:06;;;;;;;4.40;2.80;;;12.70;99.90;;;;;;5095098;28;20032;-52
2021/05/13 03:06:32;;;;;;;5.35;2.60;;;12.70;99.90;;;;;;5089750;28;20107;-49
2021/05/13 03:08:58;;;;;;;4.03;2.88;;;12.70;99.90;;;;;;5075585;28;20138;-52
2021/05/13 03:11:26;;;;;;;4.82;2.92;;;12.70;99.90;;;;;;5075143;28;20021;-49
2021/05/13 03:13:55;;;;;;;7.20;2.72;;;12.70;99.90;;;;;;5075585;28;20481;-46
2021/05/13 03:16:21;;;;;;;5.50;2.40;;;12.70;99.90;;;;;;5075281;28;20024;-47
2021/05/13 03:18:52;;;;;;;4.53;2.75;;;12.70;99.90;;;;;;5074448;28;20036;-46
2021/05/13 03:21:30;;;;;;;6.10;3.03;;;12.70;99.90;;;;;;5075393;28;20060;-48
2021/05/13 03:26:56;;;;;;;5.72;2.45;;;12.70;99.90;;;;;;5075197;28;20031;-48
2021/05/13 03:29:12;;;;;;;3.30;2.78;;;12.70;99.90;;;;;;5075024;28;20052;-45
2021/05/13 03:31:38;;;;;;;4.18;2.70;;;12.70;99.90;;;;;;5074968;28;20387;-49
2021/05/13 03:34:04;;;;;;;4.53;2.63;;;12.70;99.90;;;;;;5073934;28;20039;-48
2021/05/13 03:36:31;;;;;;;3.88;2.72;;;12.70;99.90;;;;;;5074843;28;20020;-48
2021/05/13 03:39:03;;;;;;;4.80;2.30;;;12.80;99.90;;;;;;5075198;28;20418;-46
2021/05/13 03:41:28;;;;;;;3.38;2.88;;;12.80;99.90;;;;;;5074792;28;20025;-47
2021/05/13 03:43:54;;;;;;;5.28;2.75;;;12.80;99.90;;;;;;5074960;28;20033;-48
2021/05/13 03:46:19;;;;;;;5.65;3.05;;;12.80;99.90;;;;;;5074830;28;20352;-48
2021/05/13 03:48:45;;;;;;;3.67;2.95;;;12.80;99.90;;;;;;5073035;28;20031;-46
2021/05/13 03:51:10;;;;;;;5.07;3.15;;;12.80;99.90;;;;;;5080692;28;20023;-48
2021/05/13 03:53:36;;;;;;;4.32;3.25;;;12.80;99.90;;;;;;5094745;28;20067;-47
2021/05/13 03:56:01;;;;;;;4.50;2.97;;;12.80;99.90;;;;;;5095197;28;20009;-49
2021/05/13 03:58:31;;;;;;;4.72;2.95;;;12.80;99.90;;;;;;5094555;28;20111;-50
2021/05/13 04:03:22;;;;;;;6.85;3.40;;;12.80;99.90;;;;;;5093635;28;20478;-50
2021/05/13 04:05:48;;;;;;;5.78;3.10;;;12.90;99.90;;;;;;5094740;28;20051;-49
2021/05/13 04:08:14;;;;;;;3.75;2.70;;;12.90;99.90;;;;;;5075692;28;20024;-52
2021/05/13 04:10:41;;;;;;;5.53;3.63;;;12.90;99.90;;;;;;5074405;28;20060;-51
2021/05/13 04:13:10;;;;;;;4.55;2.95;;;12.90;99.90;;;;;;5074232;28;20013;-51
2021/05/13 04:15:36;;;;;;;4.18;2.97;;;12.90;99.90;;;;;;5074360;28;20117;-49
2021/05/13 04:18:02;;;;;;;5.10;2.88;;;12.90;99.90;;;;;;5074121;28;20118;-47
2021/05/13 04:20:28;;;;;;;4.45;2.67;;;12.90;99.90;;;;;;5073352;28;20506;-49
2021/05/13 04:22:53;;;;;;;3.22;2.47;;;12.90;99.90;;;;;;5073960;28;20033;-52
2021/05/13 04:25:19;;;;;;;5.15;3.33;;;12.90;99.90;;;;;;5074228;28;20110;-47
2021/05/13 04:27:46;;;;;;;5.00;3.22;;;12.90;99.90;;;;;;5073702;28;20356;-51
2021/05/13 04:30:12;;;;;;;4.60;3.33;;;12.90;99.90;;;;;;5074140;28;20032;-48
2021/05/13 04:32:38;;;;;;;4.88;3.58;;;12.90;99.90;;;;;;5073662;28;20025;-51
2021/05/13 04:35:04;;;;;;;6.25;4.07;;;12.90;99.90;;;;;;5073055;28;20033;-54
2021/05/13 04:37:29;;;;;;;5.25;4.10;;;12.90;99.90;;;;;;5073825;28;20028;-48
2021/05/13 04:39:55;;;;;;;6.53;4.10;;;12.90;99.90;;;;;;5073879;28;20025;-49
2021/05/13 04:42:20;;;;;;;4.57;3.33;;;12.90;99.90;;;;;;5073587;28;20066;-48
2021/05/13 04:44:46;;;;;;;5.53;3.78;;;12.90;99.90;;;;;;5073761;28;20020;-48
2021/05/13 04:49:55;;;;;;;6.78;4.35;;;12.90;99.90;;;;;;5072609;28;20525;-48
2021/05/13 04:52:24;;;;;;;8.45;4.28;;;12.90;99.90;;;;;;5089354;28;20032;-51
2021/05/13 04:54:53;;;;;;;9.63;5.53;;;13.00;99.90;;;;;;5093769;28;20048;-49
2021/05/13 04:57:19;;;;;;;9.75;4.80;;;13.00;99.90;;;;;;5093621;28;20016;-47
2021/05/13 04:59:45;;;;;;;5.80;3.92;;;12.90;99.90;;;;;;5093231;28;20020;-47
2021/05/13 05:02:11;;;;;;;8.43;3.53;;;13.00;99.90;;;;;;5092936;28;20024;-48
2021/05/13 05:04:37;;;;;;;7.43;4.32;;;13.00;99.90;;;;;;5092721;28;20500;-53
2021/05/13 05:07:03;;;;;;;7.60;4.97;;;13.00;99.90;;;;;;5084523;28;20023;-47
2021/05/13 05:09:28;;;;;;;8.95;5.28;;;13.00;99.90;;;;;;5073294;28;20028;-51
2021/05/13 05:11:54;;;;;;;7.57;4.88;;;13.00;99.90;;;;;;5073067;28;20028;-50
2021/05/13 05:14:19;;;;;;;5.90;4.30;;;13.00;99.90;;;;;;5072969;28;20028;-46
2021/05/13 05:16:45;;;;;;;7.28;4.55;;;13.00;99.90;;;;;;5067739;28;20093;-50
2021/05/13 05:19:11;;;;;;;5.78;4.82;;;13.00;99.90;;;;;;5070345;28;20021;-49
2021/05/13 05:21:36;;;;;;;7.38;4.70;;;12.90;99.90;;;;;;5072056;28;20035;-48
2021/05/13 05:24:02;;;;;;;8.23;3.97;;;12.90;99.90;;;;;;5072812;28;20360;-48
2021/05/13 05:26:28;;;;;;;6.15;4.00;;;12.90;99.90;;;;;;5072779;28;20029;-50
2021/05/13 05:28:53;;;;;;;8.43;3.55;;;12.90;99.90;;;;;;5072210;28;20037;-47
2021/05/13 05:31:19;;;;;;;6.88;4.72;;;12.90;99.90;;;;;;5072786;28;20039;-46
2021/05/13 05:33:44;;;;;;;6.63;3.97;;;12.90;99.90;;;;;;5071469;28;20056;-46
2021/05/13 05:36:10;;;;;;;5.75;4.15;;;12.90;99.90;;;;;;5072707;28;20020;-48
2021/05/13 05:38:35;;;;;;;8.13;5.72;;;12.90;99.90;;;;;;5058961;28;20079;-46
2021/05/13 05:41:01;;;;;;;5.32;3.67;;;12.90;99.90;;;;;;5067082;28;20029;-49
2021/05/13 05:43:26;;;;;;;7.07;4.90;;;12.90;99.90;;;;;;5070593;28;20032;-48
2021/05/13 05:45:52;;;;;;;7.07;4.60;;;12.90;99.90;;;;;;5064160;28;20220;-48
2021/05/13 05:48:17;;;;;;;7.70;4.07;;;12.90;99.90;;;;;;5069873;28;20069;-54
2021/05/13 05:50:43;;;;;;;5.63;4.32;;;13.00;99.90;;;;;;5072415;28;20029;-47
2021/05/13 05:53:10;;;;;;;8.48;5.40;;;13.00;99.90;;;;;;5080963;28;20051;-46
2021/05/13 05:55:37;;;;;;;7.78;4.93;;;13.10;99.90;;;;;;5068042;28;20024;-52
2021/05/13 05:58:03;;;;;;;7.00;3.92;;;13.20;99.90;;;;;;5070526;28;20043;-48
2021/05/13 06:00:29;;;;;;;5.82;4.60;;;13.30;99.90;;;;;;5070617;28;20047;-50
2021/05/13 06:02:56;;;;;;;6.63;4.20;;;13.30;99.90;;;;;;5070469;28;20035;-47
2021/05/13 06:05:23;;;;;;;4.80;3.25;;;13.30;99.90;;;;;;5069808;28;20596;-45
2021/05/13 06:07:49;;;;;;;7.55;3.70;;;13.40;99.90;;;;;;5070180;28;20028;-48
2021/05/13 06:10:15;;;;;;;7.90;4.20;;;13.50;99.90;;;;;;5070664;28;20107;-47
2021/05/13 06:12:42;;;;;;;6.88;4.90;;;13.50;99.90;;;;;;5064678;28;20027;-46
2021/05/13 06:15:11;;;;;;;10.80;5.43;;;13.50;99.90;;;;;;5077199;28;20099;-48
2021/05/13 06:17:37;;;;;;;7.05;4.63;;;13.50;99.90;;;;;;5077042;28;20475;-53
2021/05/13 06:20:05;;;;;;;7.55;3.45;;;13.50;99.90;;;;;;5076001;28;20043;-47
2021/05/13 06:22:31;;;;;;;5.43;4.20;;;13.50;99.90;;;;;;5077199;28;20037;-47
2021/05/13 06:24:57;;;;;;;5.43;4.43;;;13.50;99.90;;;;;;5076825;28;20485;-52
2021/05/13 06:27:23;;;;;;;6.00;4.07;;;13.50;99.90;;;;;;5077005;28;20029;-48
2021/05/13 06:29:49;;;;;;;6.68;3.90;;;13.50;99.90;;;;;;5076711;28;20077;-50
2021/05/13 06:32:15;;;;;;;5.53;4.05;;;13.50;99.90;;;;;;5077064;28;20027;-46
2021/05/13 06:34:40;;;;;;;5.20;4.05;;;13.50;99.90;;;;;;5075892;28;20029;-48
2021/05/13 06:37:06;;;;;;;5.10;3.75;;;13.50;99.90;;;;;;5077075;28;20031;-49
2021/05/13 06:39:34;;;;;;;8.15;5.40;;;13.50;99.90;;;;;;5077325;28;20066;-47
2021/05/13 06:42:01;;;;;;;4.63;3.42;;;13.60;99.90;;;;;;5076674;28;20074;-46
2021/05/13 06:44:27;;;;;;;3.13;2.28;;;13.60;99.90;;;;;;5077031;28;20137;-45
2021/05/13 06:46:52;;;;;;;4.93;3.25;;;13.60;99.90;;;;;;5075649;28;20455;-45
2021/05/13 06:49:18;;;;;;;3.28;2.45;;;13.60;99.90;;;;;;5075908;28;20035;-48
2021/05/13 06:51:44;;;;;;;4.05;2.88;;;13.60;99.90;;;;;;5082946;28;20016;-51
2021/05/13 06:54:10;;;;;;;3.63;3.00;;;13.60;99.90;;;;;;5076650;28;20380;-49
2021/05/13 06:56:35;;;;;;;5.55;3.10;;;13.50;99.90;;;;;;5076994;28;20147;-47
2021/05/13 06:59:01;;;;;;;4.35;3.47;;;13.50;99.90;;;;;;5076658;28;20108;-48
2021/05/13 07:01:27;;;;;;;6.60;3.42;;;13.50;99.90;;;;;;5076792;28;20021;-50
2021/05/13 07:03:52;;;;;;;4.90;3.63;;;13.40;99.90;;;;;;5075770;28;20410;-46
2021/05/13 07:06:18;;;;;;;5.47;3.42;;;13.40;99.90;;;;;;5075636;28;20123;-48
2021/05/13 07:08:44;;;;;;;5.38;3.10;;;13.30;99.90;;;;;;5076794;28;20024;-47
2021/05/13 07:11:09;;;;;;;5.18;3.03;;;13.30;99.90;;;;;;5076655;28;20021;-46
2021/05/13 07:13:36;;;;;;;5.22;3.05;;;13.20;99.90;;;;;;5076825;28;20039;-45
2021/05/13 07:16:02;;;;;;;3.70;2.67;;;13.30;99.90;;;;;;5065745;28;20016;-48
2021/05/13 07:18:28;;;;;;;6.13;4.05;;;13.30;99.90;;;;;;5075735;28;20028;-47
2021/05/13 07:20:53;;;;;;;4.57;2.90;;;13.20;99.90;;;;;;5076304;28;20222;-46
2021/05/13 07:23:19;;;;;;;3.08;2.40;;;13.20;99.90;;;;;;5074074;28;20063;-46
2021/05/13 07:25:46;;;;;;;5.00;2.83;;;13.20;99.90;;;;;;5073035;28;20040;-48
2021/05/13 07:28:13;;;;;;;3.85;2.45;;;13.20;99.90;;;;;;5073187;28;20029;-48
2021/05/13 07:30:38;;;;;;;4.80;2.60;;;13.20;99.90;;;;;;5073225;28;20293;-51
2021/05/13 07:33:05;;;;;;;4.65;2.20;;;13.20;99.90;;;;;;5072056;28;20025;-48
2021/05/13 07:35:30;;;;;;;3.42;2.10;;;13.20;99.90;;;;;;5072254;28;20024;-47
2021/05/13 07:37:56;;;;;;;4.28;2.47;;;13.20;99.90;;;;;;5072759;28;20093;-47
2021/05/13 07:40:24;;;;;;;3.35;2.50;;;13.20;99.90;;;;;;5072878;28;20020;-47
2021/05/13 07:42:50;;;;;;;4.13;2.80;;;13.20;99.90;;;;;;5073008;28;20490;-51
2021/05/13 07:45:16;;;;;;;3.03;2.10;;;13.20;99.90;;;;;;5060161;28;20036;-53
2021/05/13 07:47:43;;;;;;;3.92;2.10;;;13.20;99.90;;;;;;5072817;28;20024;-49
2021/05/13 07:50:12;;;;;;;2.38;2.05;;;13.20;99.90;;;;;;5071906;28;20031;-48
2021/05/13 07:52:39;;;;;;;3.95;2.53;;;13.20;99.90;;;;;;5078591;28;20094;-47
2021/05/13 07:55:06;;;;;;;4.07;2.75;;;13.20;99.90;;;;;;5072417;28;20060;-46
2021/05/13 07:57:32;;;;;;;3.72;2.22;;;13.20;99.90;;;;;;5072954;28;20047;-52
2021/05/13 07:59:57;;;;;;;3.65;2.33;;;13.20;99.90;;;;;;5072817;28;20108;-48
2021/05/13 08:02:23;;;;;;;3.40;2.63;;;13.20;99.90;;;;;;5074289;28;20028;-46
2021/05/13 08:04:48;;;;;;;4.22;2.72;;;13.20;99.90;;;;;;5073066;28;20090;-47
2021/05/13 08:07:18;;;;;;;3.38;2.40;;;13.20;99.90;;;;;;5072921;28;20044;-48
2021/05/13 08:09:44;;;;;;;5.57;2.90;;;13.20;99.90;;;;;;5074146;28;20582;-49
2021/05/13 08:12:09;;;;;;;3.55;2.22;;;13.10;99.90;;;;;;5074158;28;20037;-49
2021/05/13 08:14:35;;;;;;;3.63;2.50;;;13.10;99.90;;;;;;5074191;28;20025;-47
2021/05/13 08:17:00;;;;;;;2.65;1.92;;;13.10;99.90;;;;;;5073949;28;20043;-49
2021/05/13 08:19:26;;;;;;;3.22;2.30;;;13.20;99.90;;;;;;5073045;28;20368;-47
2021/05/13 08:21:51;;;;;;;9.27;2.97;;;13.20;99.90;;;;;;5070430;28;20033;-45
2021/05/13 08:24:17;;;;;;;4.60;2.75;;;13.20;99.90;;;;;;5072883;28;20111;-50
2021/05/13 08:26:42;;;;;;;6.60;4.03;;;13.30;99.90;;;;;;5073749;28;20028;-48
2021/05/13 08:29:08;;;;;;;6.55;2.92;;;13.30;99.90;;;;;;5071512;28;20472;-47
2021/05/13 08:31:33;;;;;;;5.47;2.25;;;13.40;99.90;;;;;;5073745;28;20023;-49
2021/05/13 08:33:59;;;;;;;4.95;2.80;;;13.40;99.90;;;;;;5072674;28;20099;-49
2021/05/13 08:36:24;;;;;;;3.33;2.33;;;13.30;99.90;;;;;;5073727;28;20024;-50
2021/05/13 08:38:50;;;;;;;2.75;2.20;;;13.40;99.90;;;;;;5057800;28;20040;-46
2021/05/13 08:41:16;;;;;;;4.90;2.42;;;13.40;99.90;;;;;;5053671;28;20029;-50
2021/05/13 08:43:49;;;;;;;2.10;1.85;;;13.30;99.90;;;;;;5053707;28;20028;-49
2021/05/13 08:46:19;;;;;;;3.70;2.55;;;13.40;99.90;;;;;;5053576;28;20032;-50
2021/05/13 08:48:45;;;;;;;3.70;2.72;;;13.30;99.90;;;;;;5052407;28;20119;-50
2021/05/13 08:51:12;;;;;;;4.38;2.35;;;13.30;99.90;;;;;;5065414;28;20024;-53
2021/05/13 08:53:48;;;;;;;3.97;2.92;;;13.30;99.90;;;;;;5093321;28;20089;-47
2021/05/13 08:56:13;;;;;;;4.03;2.28;;;13.30;99.90;;;;;;5093582;28;20028;-52
2021/05/13 08:58:40;;;;;;;2.28;1.77;;;13.40;99.90;;;;;;5093699;28;20497;-47
2021/05/13 09:01:06;;;;;;;2.10;1.90;;;13.30;99.90;;;;;;5093466;28;20028;-50
2021/05/13 09:03:33;;;;;;;3.90;2.80;;;13.40;99.90;;;;;;5092463;28;20039;-46
2021/05/13 09:05:59;;;;;;;4.65;3.28;;;13.40;99.90;;;;;;5093548;28;20030;-49
2021/05/13 09:08:25;;;;;;;3.15;2.40;;;13.50;99.90;;;;;;5093651;28;20106;-49
2021/05/13 09:10:50;;;;;;;3.05;2.38;;;13.50;99.90;;;;;;5093711;28;20068;-48
2021/05/13 09:13:29;;;;;;;3.65;2.67;;;13.60;99.90;;;;;;5093450;28;20016;-49
2021/05/13 09:15:54;;;;;;;19.40;4.22;;;13.60;99.90;;;;;;5093478;28;20023;-49
2021/05/13 09:18:31;;;;;;;8.63;2.90;;;13.70;99.90;;;;;;5082513;28;20021;-51
2021/05/13 09:21:06;;;;;;;3.83;2.55;;;13.70;99.90;;;;;;5072731;28;20066;-50
2021/05/13 09:23:35;;;;;;;3.33;2.67;;;13.70;99.90;;;;;;5071624;28;20029;-50
2021/05/13 09:26:15;;;;;;;3.22;2.00;;;13.70;99.90;;;;;;5071397;28;20029;-48
2021/05/13 09:28:44;;;;;;;3.05;1.90;;;13.70;99.90;;;;;;5072405;28;20533;-53
2021/05/13 09:31:42;;;;;;;5.22;2.40;;;13.70;99.90;;;;;;5071336;28;20020;-55
2021/05/13 09:34:11;;;;;;;4.03;1.95;;;13.70;99.90;;;;;;5071019;28;20103;-53
2021/05/13 09:36:37;;;;;;;2.88;2.42;;;13.70;99.90;;;;;;5072815;28;20058;-54
2021/05/13 09:39:25;;;;;;;5.63;2.83;;;13.70;99.90;;;;;;5072037;28;20032;-52
2021/05/13 09:42:02;;;;;;;3.53;2.13;;;13.70;99.90;;;;;;5071365;28;20029;-51
2021/05/13 09:44:34;;;;;;;2.63;2.15;;;13.70;99.90;;;;;;5072705;28;20031;-49
2021/05/13 09:47:26;;;;;;;4.75;2.17;;;13.70;99.90;;;;;;5070932;28;20407;-48
2021/05/13 09:50:01;;;;;;;4.47;2.90;;;13.70;99.90;;;;;;5071520;28;20024;-49
2021/05/13 09:52:37;;;;;;;3.58;2.42;;;13.70;99.90;;;;;;5089378;28;20071;-48
2021/05/13 09:55:18;;;;;;;4.10;2.30;;;13.80;99.90;;;;;;5091441;28;20043;-50
2021/05/13 09:57:51;;;;;;;2.70;1.92;;;13.80;99.90;;;;;;5092940;28;20501;-51
2021/05/13 10:00:40;;;;;;;3.72;2.33;;;13.80;99.90;;;;;;5092486;28;20103;-53
2021/05/13 10:03:10;;;;;;;2.25;1.92;;;13.80;99.90;;;;;;5091206;28;20079;-53
2021/05/13 10:05:39;;;;;;;2.67;2.15;;;13.90;99.90;;;;;;5092609;28;20374;-49
2021/05/13 10:08:05;;;;;;;4.57;2.47;;;13.90;99.90;;;;;;5092627;28;20055;-50
2021/05/13 10:10:30;;;;;;;2.33;2.00;;;13.90;99.90;;;;;;5092532;28;20031;-51
2021/05/13 10:12:57;;;;;;;2.95;2.40;;;13.90;99.90;;;;;;5092635;28;20016;-49
2021/05/13 10:15:25;;;;;;;3.42;1.83;;;13.90;99.90;;;;;;5092466;28;20027;-48
2021/05/13 10:17:55;;;;;;;1.83;1.38;;;13.80;99.90;;;;;;5092519;28;20514;-48
2021/05/13 10:20:23;;;;;;;2.15;1.63;;;13.90;99.90;;;;;;5091368;28;20418;-49
2021/05/13 10:22:49;;;;;;;2.63;1.75;;;13.90;99.90;;;;;;5092664;28;20107;-49
2021/05/13 10:25:20;;;;;;;2.40;1.90;;;13.90;99.90;;;;;;5092290;28;20036;-46
2021/05/13 10:27:57;;;;;;;2.85;1.80;;;14.00;99.90;;;;;;5092479;28;20024;-49
2021/05/13 10:30:24;;;;;;;4.85;2.22;;;14.00;99.90;;;;;;5092408;28;20032;-49
2021/05/13 10:33:06;;;;;;;4.10;2.20;;;14.00;99.90;;;;;;5092519;28;20013;-50
2021/05/13 10:35:33;;;;;;;4.85;2.22;;;14.00;99.90;;;;;;5091616;28;20375;-51
2021/05/13 10:38:01;;;;;;;2.35;1.70;;;14.00;99.90;;;;;;5083798;28;20025;-49
2021/05/13 10:43:04;;;;;;;4.05;1.40;;;14.00;99.90;;;;;;5072258;28;20103;-48
2021/05/13 10:45:30;;;;;;;2.08;1.55;;;14.00;99.90;;;;;;5072060;28;20464;-50
2021/05/13 10:48:21;;;;;;;2.00;1.60;;;14.00;99.90;;;;;;5072125;28;20054;-50
2021/05/13 10:50:56;;;;;;;2.33;1.30;;;13.90;99.90;;;;;;5074758;28;20472;-49
2021/05/13 10:53:34;;;;;;;2.05;1.52;;;13.90;99.90;;;;;;5092100;28;20033;-48
2021/05/13 10:56:27;;;;;;;1.27;1.10;;;13.90;99.90;;;;;;5092271;28;20375;-51
2021/05/13 10:58:53;;;;;;;1.33;0.98;;;13.90;99.90;;;;;;5062921;28;20032;-45
2021/05/13 11:01:44;;;;;;;1.10;0.98;;;13.90;99.90;;;;;;5095848;28;20471;-51
2021/05/13 11:04:25;;;;;;;1.77;1.38;;;13.80;99.90;;;;;;5095071;28;20052;-48
2021/05/13 11:07:24;;;;;;;3.53;1.65;;;13.70;99.90;;;;;;5095851;28;20016;-49
2021/05/13 11:09:51;;;;;;;3.55;1.38;;;13.80;99.90;;;;;;5069407;28;20387;-52
2021/05/13 11:12:19;;;;;;;1.63;1.40;;;13.80;99.90;;;;;;5073483;28;20103;-51
2021/05/13 11:15:00;;;;;;;1.50;1.27;;;13.80;99.90;;;;;;5073835;28;20055;-50
2021/05/13 11:17:50;;;;;;;1.25;1.10;;;13.70;99.90;;;;;;5072803;28;20147;-49
2021/05/13 11:20:24;;;;;;;3.22;2.58;;;13.70;99.90;;;;;;5072369;28;20016;-49
2021/05/13 11:23:14;;;;;;;3.17;2.28;;;13.70;99.90;;;;;;5073583;28;20025;-48
2021/05/13 11:25:45;;;;;;;2.50;2.03;;;13.80;99.90;;;;;;5073335;28;20020;-50
2021/05/13 11:28:30;;;;;;;1.73;1.63;;;13.80;99.90;;;;;;5072288;28;20525;-46
2021/05/13 11:31:08;;;;;;;3.25;1.80;;;13.90;99.90;;;;;;5073362;28;20063;-51
2021/05/13 11:33:53;;;;;;;2.00;1.80;;;13.90;99.90;;;;;;5072242;28;20016;-48
2021/05/13 11:36:29;;;;;;;2.03;1.58;;;13.90;99.90;;;;;;5073014;28;20255;-50
2021/05/13 11:39:07;;;;;;;1.42;1.33;;;14.00;99.90;;;;;;5073207;28;20016;-47
2021/05/13 11:41:32;;;;;;;1.40;1.30;;;14.10;99.90;;;;;;5073069;28;20069;-47
2021/05/13 11:43:58;;;;;;;1.50;1.25;;;14.20;99.90;;;;;;5073281;28;20032;-46
2021/05/13 11:46:27;;;;;;;1.58;1.40;;;14.30;99.90;;;;;;5070868;28;20032;-59
2021/05/13 11:48:54;;;;;;;1.77;1.42;;;14.40;99.90;;;;;;5072081;28;20020;-58
2021/05/13 11:51:28;;;;;;;1.45;1.35;;;14.40;99.90;;;;;;5079952;28;20091;-51
2021/05/13 11:53:58;;;;;;;1.80;1.50;;;14.50;99.90;;;;;;5059980;28;20044;-55
2021/05/13 11:56:27;;;;;;;1.73;1.63;;;14.60;99.90;;;;;;5072777;28;20471;-51
2021/05/13 11:58:54;;;;;;;1.88;1.75;;;14.70;99.90;;;;;;5073176;28;20078;-52
2021/05/13 12:01:21;;;;;;;1.60;1.50;;;14.70;99.90;;;;;;5072565;28;20786;-54
2021/05/13 12:03:58;;;;;;;1.33;1.23;;;14.70;99.90;;;;;;5072126;28;20033;-53
2021/05/13 12:06:24;;;;;;;1.48;1.35;;;14.80;99.90;;;;;;5072758;28;20691;-51
2021/05/13 12:08:50;;;;;;;1.35;1.25;;;15.00;99.90;;;;;;5072737;28;20031;-53
2021/05/13 12:11:21;;;;;;;1.52;1.42;;;15.00;99.90;;;;;;5072146;28;20016;-53
2021/05/13 12:13:48;;;;;;;1.55;1.20;;;15.00;99.90;;;;;;5072560;28;20189;-51
2021/05/13 12:16:16;;;;;;;1.23;1.10;;;15.00;99.90;;;;;;5072534;28;20372;-53
2021/05/13 12:18:43;;;;;;;1.00;0.95;;;15.00;99.90;;;;;;5071563;28;20123;-54
2021/05/13 12:21:09;;;;;;;1.30;1.10;;;15.10;99.90;;;;;;5072770;28;20107;-53
2021/05/13 12:23:39;;;;;;;1.30;0.95;;;15.10;99.90;;;;;;5072082;28;20024;-52
2021/05/13 12:26:04;;;;;;;1.58;1.13;;;15.10;99.90;;;;;;5071163;28;20593;-54
2021/05/13 12:28:30;;;;;;;1.13;1.00;;;15.00;99.90;;;;;;5072284;28;20111;-50
2021/05/13 12:30:56;;;;;;;1.30;1.20;;;15.10;99.90;;;;;;5072239;28;20029;-52
2021/05/13 12:33:28;;;;;;;1.13;1.02;;;15.20;99.90;;;;;;5071322;28;20033;-52
2021/05/13 12:35:55;;;;;;;1.20;1.10;;;15.20;99.90;;;;;;5072115;28;20025;-51
2021/05/13 12:38:23;;;;;;;1.05;0.95;;;15.20;99.90;;;;;;5072030;28;20476;-52
2021/05/13 12:41:05;;;;;;;1.45;1.33;;;15.20;99.90;;;;;;5071909;28;20031;-53
2021/05/13 12:43:30;;;;;;;1.20;1.10;;;15.20;99.90;;;;;;5061333;28;20028;-51
2021/05/13 12:45:57;;;;;;;1.10;0.90;;;15.10;99.90;;;;;;5071911;28;20436;-54
2021/05/13 12:48:27;;;;;;;1.52;1.05;;;15.20;99.90;;;;;;5071040;28;20036;-50
2021/05/13 12:50:58;;;;;;;1.20;1.10;;;15.20;99.90;;;;;;5072611;28;20020;-55
2021/05/13 12:53:24;;;;;;;1.33;0.82;;;15.20;99.90;;;;;;5071465;28;20076;-56
2021/05/13 12:55:51;;;;;;;1.02;1.00;;;15.20;99.90;;;;;;5069877;28;20025;-52
2021/05/13 12:58:18;;;;;;;1.67;1.13;;;15.20;99.90;;;;;;5071818;28;20024;-51
2021/05/13 13:00:55;;;;;;;1.23;1.13;;;15.20;99.90;;;;;;5071636;28;20028;-52
2021/05/13 13:03:41;;;;;;;0.93;0.90;;;15.20;99.90;;;;;;5070938;28;20399;-52
2021/05/13 13:06:11;;;;;;;2.00;1.40;;;15.20;99.90;;;;;;5071702;28;20047;-52